sensor_id;sensor_type;location;lat;lon;timestamp;P1;P2;P0
45700;PMS5003;36277;32.852;-116.998;2023-06-04T00:00:37;7.20;7.20;4.80
45700;PMS5003;36277;32.852;-116.998;2023-06-04T00:03:03;6.60;6.60;5.60
45700;PMS5003;36277;32.852;-116.998;2023-06-04T00:05:29;7.40;7.40;5.40
45700;PMS5003;36277;32.852;-116.998;2023-06-04T00:07:55;5.40;5.40;4.40
45700;PMS5003;36277;32.852;-116.998;2023-06-04T00:10:22;6.40;6.40;5.60
45700;PMS5003;36277;32.852;-116.998;2023-06-04T00:12:48;7.00;7.00;5.80
45700;PMS5003;36277;32.852;-116.998;2023-06-04T00:15:15;6.40;6.40;5.20
45700;PMS5003;36277;32.852;-116.998;2023-06-04T00:17:41;7.60;7.60;6.00
45700;PMS5003;36277;32.852;-116.998;2023-06-04T00:20:09;7.00;7.00;5.60
45700;PMS5003;36277;32.852;-116.998;2023-06-04T00:22:36;8.20;8.20;6.60
45700;PMS5003;36277;32.852;-116.998;2023-06-04T00:25:03;7.80;7.80;5.20
45700;PMS5003;36277;32.852;-116.998;2023-06-04T00:27:30;5.60;5.60;4.40
45700;PMS5003;36277;32.852;-116.998;2023-06-04T00:29:56;6.60;6.60;5.20
45700;PMS5003;36277;32.852;-116.998;2023-06-04T00:32:22;9.00;9.00;6.80
45700;PMS5003;36277;32.852;-116.998;2023-06-04T00:34:55;7.80;7.80;5.40
45700;PMS5003;36277;32.852;-116.998;2023-06-04T00:37:25;7.20;7.20;6.20
45700;PMS5003;36277;32.852;-116.998;2023-06-04T00:39:53;5.60;5.60;5.00
45700;PMS5003;36277;32.852;-116.998;2023-06-04T00:42:22;6.00;6.00;5.00
45700;PMS5003;36277;32.852;-116.998;2023-06-04T00:44:49;7.80;7.80;6.80
45700;PMS5003;36277;32.852;-116.998;2023-06-04T00:47:16;6.80;6.80;5.60
45700;PMS5003;36277;32.852;-116.998;2023-06-04T00:49:44;6.00;6.00;5.60
45700;PMS5003;36277;32.852;-116.998;2023-06-04T00:52:11;6.00;6.00;4.40
45700;PMS5003;36277;32.852;-116.998;2023-06-04T00:54:40;5.60;5.60;4.80
45700;PMS5003;36277;32.852;-116.998;2023-06-04T00:57:06;4.20;4.20;3.40
45700;PMS5003;36277;32.852;-116.998;2023-06-04T00:59:35;5.40;5.40;5.00
45700;PMS5003;36277;32.852;-116.998;2023-06-04T01:02:08;5.00;5.00;4.60
45700;PMS5003;36277;32.852;-116.998;2023-06-04T01:04:46;6.40;6.40;5.00
45700;PMS5003;36277;32.852;-116.998;2023-06-04T01:07:16;5.80;5.80;5.00
45700;PMS5003;36277;32.852;-116.998;2023-06-04T01:09:44;6.20;6.20;6.00
45700;PMS5003;36277;32.852;-116.998;2023-06-04T01:12:11;5.60;5.60;5.00
45700;PMS5003;36277;32.852;-116.998;2023-06-04T01:14:37;4.60;4.60;4.20
45700;PMS5003;36277;32.852;-116.998;2023-06-04T01:17:48;5.00;5.00;4.20
45700;PMS5003;36277;32.852;-116.998;2023-06-04T01:28:04;5.60;5.60;5.00
45700;PMS5003;36277;32.852;-116.998;2023-06-04T01:30:33;5.00;5.00;4.00
45700;PMS5003;36277;32.852;-116.998;2023-06-04T01:33:08;6.40;6.40;5.00
45700;PMS5003;36277;32.852;-116.998;2023-06-04T01:35:39;3.80;3.80;3.60
45700;PMS5003;36277;32.852;-116.998;2023-06-04T01:38:05;6.00;6.00;5.00
45700;PMS5003;36277;32.852;-116.998;2023-06-04T01:40:32;5.00;5.00;3.80
45700;PMS5003;36277;32.852;-116.998;2023-06-04T01:42:59;5.00;5.00;4.00
45700;PMS5003;36277;32.852;-116.998;2023-06-04T01:45:26;6.80;6.80;5.40
45700;PMS5003;36277;32.852;-116.998;2023-06-04T01:47:53;5.00;5.00;4.00
45700;PMS5003;36277;32.852;-116.998;2023-06-04T01:50:20;5.80;5.80;5.00
45700;PMS5003;36277;32.852;-116.998;2023-06-04T01:52:46;5.00;5.00;4.00
45700;PMS5003;36277;32.852;-116.998;2023-06-04T01:55:14;6.00;6.00;4.40
45700;PMS5003;36277;32.852;-116.998;2023-06-04T01:57:42;5.80;5.80;5.00
45700;PMS5003;36277;32.852;-116.998;2023-06-04T02:00:10;5.00;5.00;4.00
45700;PMS5003;36277;32.852;-116.998;2023-06-04T02:02:37;6.40;6.40;5.00
45700;PMS5003;36277;32.852;-116.998;2023-06-04T02:05:06;5.20;5.20;4.60
45700;PMS5003;36277;32.852;-116.998;2023-06-04T02:07:42;5.80;5.80;4.60
45700;PMS5003;36277;32.852;-116.998;2023-06-04T02:10:10;3.80;3.80;3.00
45700;PMS5003;36277;32.852;-116.998;2023-06-04T02:12:38;4.20;4.20;3.60
45700;PMS5003;36277;32.852;-116.998;2023-06-04T02:15:06;5.20;5.00;4.20
45700;PMS5003;36277;32.852;-116.998;2023-06-04T02:17:35;5.00;5.00;4.00
45700;PMS5003;36277;32.852;-116.998;2023-06-04T02:20:08;5.80;5.80;5.00
45700;PMS5003;36277;32.852;-116.998;2023-06-04T02:22:37;4.00;4.00;3.60
45700;PMS5003;36277;32.852;-116.998;2023-06-04T02:25:04;4.20;4.20;3.20
45700;PMS5003;36277;32.852;-116.998;2023-06-04T02:27:31;4.60;4.60;3.40
45700;PMS5003;36277;32.852;-116.998;2023-06-04T02:29:57;4.60;4.60;3.80
45700;PMS5003;36277;32.852;-116.998;2023-06-04T02:32:23;6.60;6.60;5.00
45700;PMS5003;36277;32.852;-116.998;2023-06-04T02:34:50;4.20;4.20;3.80
45700;PMS5003;36277;32.852;-116.998;2023-06-04T02:37:16;3.00;3.00;3.00
45700;PMS5003;36277;32.852;-116.998;2023-06-04T02:39:42;4.60;4.60;4.00
45700;PMS5003;36277;32.852;-116.998;2023-06-04T02:42:08;4.60;4.60;4.00
45700;PMS5003;36277;32.852;-116.998;2023-06-04T02:44:35;4.20;4.20;3.20
45700;PMS5003;36277;32.852;-116.998;2023-06-04T02:47:01;7.00;7.00;4.00
45700;PMS5003;36277;32.852;-116.998;2023-06-04T02:49:28;6.00;6.00;5.40
45700;PMS5003;36277;32.852;-116.998;2023-06-04T02:51:55;4.40;4.40;3.40
45700;PMS5003;36277;32.852;-116.998;2023-06-04T02:54:21;3.80;3.80;2.40
45700;PMS5003;36277;32.852;-116.998;2023-06-04T02:56:47;4.40;4.40;3.60
45700;PMS5003;36277;32.852;-116.998;2023-06-04T02:59:14;1.40;1.40;0.60
45700;PMS5003;36277;32.852;-116.998;2023-06-04T03:01:41;4.40;4.40;3.80
45700;PMS5003;36277;32.852;-116.998;2023-06-04T03:04:07;5.40;5.40;4.40
45700;PMS5003;36277;32.852;-116.998;2023-06-04T03:06:35;4.40;4.40;3.80
45700;PMS5003;36277;32.852;-116.998;2023-06-04T03:09:05;3.40;3.40;2.80
45700;PMS5003;36277;32.852;-116.998;2023-06-04T03:11:32;1.80;1.80;1.80
45700;PMS5003;36277;32.852;-116.998;2023-06-04T03:13:58;3.80;3.80;2.80
45700;PMS5003;36277;32.852;-116.998;2023-06-04T03:16:25;4.00;4.00;3.40
45700;PMS5003;36277;32.852;-116.998;2023-06-04T03:18:51;3.00;3.00;3.00
45700;PMS5003;36277;32.852;-116.998;2023-06-04T03:21:17;3.80;3.80;3.60
45700;PMS5003;36277;32.852;-116.998;2023-06-04T03:23:44;4.40;4.40;3.60
45700;PMS5003;36277;32.852;-116.998;2023-06-04T03:26:10;4.00;4.00;3.00
45700;PMS5003;36277;32.852;-116.998;2023-06-04T03:28:38;3.00;3.00;3.00
45700;PMS5003;36277;32.852;-116.998;2023-06-04T03:31:05;4.80;4.80;4.00
45700;PMS5003;36277;32.852;-116.998;2023-06-04T03:33:31;2.80;2.80;2.40
45700;PMS5003;36277;32.852;-116.998;2023-06-04T03:35:58;2.40;2.40;2.00
45700;PMS5003;36277;32.852;-116.998;2023-06-04T03:38:24;4.40;4.40;4.00
45700;PMS5003;36277;32.852;-116.998;2023-06-04T03:40:51;5.00;5.00;4.00
45700;PMS5003;36277;32.852;-116.998;2023-06-04T03:43:20;4.20;4.20;3.80
45700;PMS5003;36277;32.852;-116.998;2023-06-04T03:45:47;4.00;4.00;3.80
45700;PMS5003;36277;32.852;-116.998;2023-06-04T03:48:13;5.00;5.00;4.00
45700;PMS5003;36277;32.852;-116.998;2023-06-04T03:50:39;4.80;4.80;4.00
45700;PMS5003;36277;32.852;-116.998;2023-06-04T03:53:06;5.00;5.00;4.00
45700;PMS5003;36277;32.852;-116.998;2023-06-04T03:55:33;4.20;4.20;3.00
45700;PMS5003;36277;32.852;-116.998;2023-06-04T03:57:59;4.20;4.20;3.60
45700;PMS5003;36277;32.852;-116.998;2023-06-04T04:00:25;4.40;4.40;3.80
45700;PMS5003;36277;32.852;-116.998;2023-06-04T04:02:52;5.80;5.00;4.00
45700;PMS5003;36277;32.852;-116.998;2023-06-04T04:05:18;3.20;3.20;3.00
45700;PMS5003;36277;32.852;-116.998;2023-06-04T04:07:45;4.40;4.40;4.20
45700;PMS5003;36277;32.852;-116.998;2023-06-04T04:10:12;5.00;5.00;4.20
45700;PMS5003;36277;32.852;-116.998;2023-06-04T04:12:39;5.00;5.00;4.20
45700;PMS5003;36277;32.852;-116.998;2023-06-04T04:15:05;5.00;5.00;4.00
45700;PMS5003;36277;32.852;-116.998;2023-06-04T04:17:32;3.40;3.40;3.40
45700;PMS5003;36277;32.852;-116.998;2023-06-04T04:19:58;2.80;2.80;2.00
45700;PMS5003;36277;32.852;-116.998;2023-06-04T04:22:24;3.20;3.20;3.00
45700;PMS5003;36277;32.852;-116.998;2023-06-04T04:24:50;4.00;4.00;3.00
45700;PMS5003;36277;32.852;-116.998;2023-06-04T04:27:17;2.20;2.20;2.00
45700;PMS5003;36277;32.852;-116.998;2023-06-04T04:29:43;3.00;3.00;3.00
45700;PMS5003;36277;32.852;-116.998;2023-06-04T04:32:13;2.00;2.00;2.00
45700;PMS5003;36277;32.852;-116.998;2023-06-04T04:34:51;2.00;2.00;2.00
45700;PMS5003;36277;32.852;-116.998;2023-06-04T04:37:20;2.00;2.00;2.00
45700;PMS5003;36277;32.852;-116.998;2023-06-04T04:39:47;2.00;2.00;1.60
45700;PMS5003;36277;32.852;-116.998;2023-06-04T04:42:17;1.40;1.40;1.00
45700;PMS5003;36277;32.852;-116.998;2023-06-04T04:44:44;2.00;2.00;1.80
45700;PMS5003;36277;32.852;-116.998;2023-06-04T04:47:15;3.00;3.00;2.60
45700;PMS5003;36277;32.852;-116.998;2023-06-04T04:49:42;2.00;2.00;2.00
45700;PMS5003;36277;32.852;-116.998;2023-06-04T04:52:08;2.40;2.40;2.00
45700;PMS5003;36277;32.852;-116.998;2023-06-04T04:54:35;1.00;1.00;1.00
45700;PMS5003;36277;32.852;-116.998;2023-06-04T04:57:01;1.00;1.00;1.00
45700;PMS5003;36277;32.852;-116.998;2023-06-04T04:59:27;2.20;2.20;2.00
45700;PMS5003;36277;32.852;-116.998;2023-06-04T05:01:53;1.00;1.00;1.00
45700;PMS5003;36277;32.852;-116.998;2023-06-04T05:04:20;1.00;1.00;1.00
45700;PMS5003;36277;32.852;-116.998;2023-06-04T05:06:46;2.00;2.00;2.00
45700;PMS5003;36277;32.852;-116.998;2023-06-04T05:09:12;2.80;2.80;2.20
45700;PMS5003;36277;32.852;-116.998;2023-06-04T05:11:38;2.00;2.00;2.00
45700;PMS5003;36277;32.852;-116.998;2023-06-04T05:14:04;2.00;2.00;2.00
45700;PMS5003;36277;32.852;-116.998;2023-06-04T05:16:32;2.00;2.00;2.00
45700;PMS5003;36277;32.852;-116.998;2023-06-04T05:19:00;3.20;3.20;3.00
45700;PMS5003;36277;32.852;-116.998;2023-06-04T05:21:28;2.00;2.00;2.00
45700;PMS5003;36277;32.852;-116.998;2023-06-04T05:23:54;2.00;2.00;2.00
45700;PMS5003;36277;32.852;-116.998;2023-06-04T05:26:21;2.00;2.00;2.00
45700;PMS5003;36277;32.852;-116.998;2023-06-04T05:28:48;1.80;1.80;1.40
45700;PMS5003;36277;32.852;-116.998;2023-06-04T05:31:15;2.00;2.00;2.00
45700;PMS5003;36277;32.852;-116.998;2023-06-04T05:33:43;1.00;1.00;1.00
45700;PMS5003;36277;32.852;-116.998;2023-06-04T05:36:10;2.00;2.00;2.00
45700;PMS5003;36277;32.852;-116.998;2023-06-04T05:38:37;2.00;2.00;2.00
45700;PMS5003;36277;32.852;-116.998;2023-06-04T05:41:03;3.20;3.20;2.60
45700;PMS5003;36277;32.852;-116.998;2023-06-04T05:43:30;1.40;1.40;1.00
45700;PMS5003;36277;32.852;-116.998;2023-06-04T05:45:56;1.60;1.60;1.60
45700;PMS5003;36277;32.852;-116.998;2023-06-04T05:48:22;2.00;1.40;1.40
45700;PMS5003;36277;32.852;-116.998;2023-06-04T05:50:48;3.00;3.00;2.00
45700;PMS5003;36277;32.852;-116.998;2023-06-04T05:53:15;3.20;3.20;2.80
45700;PMS5003;36277;32.852;-116.998;2023-06-04T05:55:41;3.40;3.40;3.00
45700;PMS5003;36277;32.852;-116.998;2023-06-04T05:58:08;1.00;1.00;0.60
45700;PMS5003;36277;32.852;-116.998;2023-06-04T06:00:34;1.00;1.00;1.00
45700;PMS5003;36277;32.852;-116.998;2023-06-04T06:03:00;1.40;1.40;1.40
45700;PMS5003;36277;32.852;-116.998;2023-06-04T06:05:26;2.00;2.00;2.00
45700;PMS5003;36277;32.852;-116.998;2023-06-04T06:07:53;1.60;1.60;1.40
45700;PMS5003;36277;32.852;-116.998;2023-06-04T06:10:21;2.00;2.00;2.00
45700;PMS5003;36277;32.852;-116.998;2023-06-04T06:12:47;1.60;1.60;1.40
45700;PMS5003;36277;32.852;-116.998;2023-06-04T06:15:13;1.80;1.80;1.00
45700;PMS5003;36277;32.852;-116.998;2023-06-04T06:17:40;1.80;1.80;1.60
45700;PMS5003;36277;32.852;-116.998;2023-06-04T06:20:06;2.00;2.00;1.60
45700;PMS5003;36277;32.852;-116.998;2023-06-04T06:22:33;2.00;2.00;2.00
45700;PMS5003;36277;32.852;-116.998;2023-06-04T06:25:01;2.80;2.80;2.00
45700;PMS5003;36277;32.852;-116.998;2023-06-04T06:27:30;2.00;2.00;2.00
45700;PMS5003;36277;32.852;-116.998;2023-06-04T06:29:56;3.80;3.80;2.80
45700;PMS5003;36277;32.852;-116.998;2023-06-04T06:32:23;2.00;2.00;2.00
45700;PMS5003;36277;32.852;-116.998;2023-06-04T06:34:49;2.80;2.80;2.00
45700;PMS5003;36277;32.852;-116.998;2023-06-04T06:37:15;3.80;3.80;3.00
45700;PMS5003;36277;32.852;-116.998;2023-06-04T06:39:41;2.20;2.20;2.00
45700;PMS5003;36277;32.852;-116.998;2023-06-04T06:42:08;3.00;3.00;3.00
45700;PMS5003;36277;32.852;-116.998;2023-06-04T06:44:34;2.80;2.80;2.80
45700;PMS5003;36277;32.852;-116.998;2023-06-04T06:47:01;2.40;2.40;2.00
45700;PMS5003;36277;32.852;-116.998;2023-06-04T06:49:27;2.00;2.00;1.80
45700;PMS5003;36277;32.852;-116.998;2023-06-04T06:51:53;1.00;1.00;1.00
45700;PMS5003;36277;32.852;-116.998;2023-06-04T06:54:19;1.40;1.40;1.20
45700;PMS5003;36277;32.852;-116.998;2023-06-04T06:56:47;2.00;2.00;2.00
45700;PMS5003;36277;32.852;-116.998;2023-06-04T06:59:15;1.00;1.00;1.00
45700;PMS5003;36277;32.852;-116.998;2023-06-04T07:01:42;1.20;1.20;1.00
45700;PMS5003;36277;32.852;-116.998;2023-06-04T07:04:08;1.00;1.00;1.00
45700;PMS5003;36277;32.852;-116.998;2023-06-04T07:06:34;2.00;2.00;1.00
45700;PMS5003;36277;32.852;-116.998;2023-06-04T07:09:02;1.80;1.80;1.00
45700;PMS5003;36277;32.852;-116.998;2023-06-04T07:11:30;1.00;1.00;1.00
45700;PMS5003;36277;32.852;-116.998;2023-06-04T07:13:57;2.00;2.00;2.00
45700;PMS5003;36277;32.852;-116.998;2023-06-04T07:16:23;1.00;1.00;1.00
45700;PMS5003;36277;32.852;-116.998;2023-06-04T07:18:50;1.00;1.00;1.00
45700;PMS5003;36277;32.852;-116.998;2023-06-04T07:21:16;1.00;1.00;1.00
45700;PMS5003;36277;32.852;-116.998;2023-06-04T07:23:45;2.00;2.00;1.00
45700;PMS5003;36277;32.852;-116.998;2023-06-04T07:26:15;1.00;1.00;1.00
45700;PMS5003;36277;32.852;-116.998;2023-06-04T07:28:41;2.40;2.40;2.00
45700;PMS5003;36277;32.852;-116.998;2023-06-04T07:31:08;2.00;2.00;2.00
45700;PMS5003;36277;32.852;-116.998;2023-06-04T07:33:34;2.00;2.00;2.00
45700;PMS5003;36277;32.852;-116.998;2023-06-04T07:36:09;1.80;1.80;1.80
45700;PMS5003;36277;32.852;-116.998;2023-06-04T07:38:36;2.00;2.00;1.60
45700;PMS5003;36277;32.852;-116.998;2023-06-04T07:41:02;1.00;1.00;1.00
45700;PMS5003;36277;32.852;-116.998;2023-06-04T07:43:29;1.80;1.80;1.20
45700;PMS5003;36277;32.852;-116.998;2023-06-04T07:45:55;2.00;2.00;2.00
45700;PMS5003;36277;32.852;-116.998;2023-06-04T07:48:22;1.20;1.20;1.00
45700;PMS5003;36277;32.852;-116.998;2023-06-04T07:50:56;1.20;1.20;1.00
45700;PMS5003;36277;32.852;-116.998;2023-06-04T07:53:25;0.60;0.60;0.60
45700;PMS5003;36277;32.852;-116.998;2023-06-04T07:55:52;1.00;1.00;1.00
45700;PMS5003;36277;32.852;-116.998;2023-06-04T07:58:20;1.00;1.00;1.00
45700;PMS5003;36277;32.852;-116.998;2023-06-04T08:00:46;1.60;1.60;1.40
45700;PMS5003;36277;32.852;-116.998;2023-06-04T08:03:13;1.20;1.20;1.00
45700;PMS5003;36277;32.852;-116.998;2023-06-04T08:05:40;1.20;1.20;1.20
45700;PMS5003;36277;32.852;-116.998;2023-06-04T08:08:07;0.20;0.20;0.20
45700;PMS5003;36277;32.852;-116.998;2023-06-04T08:10:34;2.00;2.00;2.00
45700;PMS5003;36277;32.852;-116.998;2023-06-04T08:13:00;1.00;1.00;1.00
45700;PMS5003;36277;32.852;-116.998;2023-06-04T08:15:26;1.00;1.00;1.00
45700;PMS5003;36277;32.852;-116.998;2023-06-04T08:17:53;1.00;1.00;1.00
45700;PMS5003;36277;32.852;-116.998;2023-06-04T08:20:19;2.00;2.00;2.00
45700;PMS5003;36277;32.852;-116.998;2023-06-04T08:22:46;1.00;1.00;1.00
45700;PMS5003;36277;32.852;-116.998;2023-06-04T08:25:12;3.00;3.00;3.00
45700;PMS5003;36277;32.852;-116.998;2023-06-04T08:27:39;2.20;2.20;2.00
45700;PMS5003;36277;32.852;-116.998;2023-06-04T08:30:06;1.60;1.60;1.20
45700;PMS5003;36277;32.852;-116.998;2023-06-04T08:32:34;2.00;2.00;2.00
45700;PMS5003;36277;32.852;-116.998;2023-06-04T08:35:00;2.00;2.00;1.00
45700;PMS5003;36277;32.852;-116.998;2023-06-04T08:37:27;1.80;1.80;1.80
45700;PMS5003;36277;32.852;-116.998;2023-06-04T08:39:53;2.00;2.00;1.80
45700;PMS5003;36277;32.852;-116.998;2023-06-04T08:42:25;1.00;1.00;1.00
45700;PMS5003;36277;32.852;-116.998;2023-06-04T08:44:55;1.00;1.00;1.00
45700;PMS5003;36277;32.852;-116.998;2023-06-04T08:47:26;1.60;1.60;1.20
45700;PMS5003;36277;32.852;-116.998;2023-06-04T08:49:59;1.60;1.60;1.60
45700;PMS5003;36277;32.852;-116.998;2023-06-04T08:52:27;1.20;1.20;1.00
45700;PMS5003;36277;32.852;-116.998;2023-06-04T08:54:54;2.00;2.00;1.00
45700;PMS5003;36277;32.852;-116.998;2023-06-04T08:57:22;2.60;2.60;2.00
45700;PMS5003;36277;32.852;-116.998;2023-06-04T08:59:48;2.00;2.00;2.00
45700;PMS5003;36277;32.852;-116.998;2023-06-04T09:02:16;2.00;2.00;2.00
45700;PMS5003;36277;32.852;-116.998;2023-06-04T09:04:43;2.00;2.00;2.00
45700;PMS5003;36277;32.852;-116.998;2023-06-04T09:07:10;1.00;1.00;1.00
45700;PMS5003;36277;32.852;-116.998;2023-06-04T09:09:38;2.20;2.20;1.60
45700;PMS5003;36277;32.852;-116.998;2023-06-04T09:12:10;1.00;1.00;1.00
45700;PMS5003;36277;32.852;-116.998;2023-06-04T09:14:41;1.00;1.00;1.00
45700;PMS5003;36277;32.852;-116.998;2023-06-04T09:17:07;1.00;1.00;1.00
45700;PMS5003;36277;32.852;-116.998;2023-06-04T09:19:33;1.60;1.60;1.60
45700;PMS5003;36277;32.852;-116.998;2023-06-04T09:22:00;2.00;2.00;1.80
45700;PMS5003;36277;32.852;-116.998;2023-06-04T09:24:40;1.60;1.60;1.60
45700;PMS5003;36277;32.852;-116.998;2023-06-04T09:27:18;1.40;1.40;1.00
45700;PMS5003;36277;32.852;-116.998;2023-06-04T09:29:51;1.20;1.20;1.00
45700;PMS5003;36277;32.852;-116.998;2023-06-04T09:32:25;2.00;2.00;1.00
45700;PMS5003;36277;32.852;-116.998;2023-06-04T09:34:52;1.80;1.80;1.80
45700;PMS5003;36277;32.852;-116.998;2023-06-04T09:37:20;2.00;2.00;1.40
45700;PMS5003;36277;32.852;-116.998;2023-06-04T09:39:55;1.00;1.00;0.60
45700;PMS5003;36277;32.852;-116.998;2023-06-04T09:42:22;1.00;1.00;1.00
45700;PMS5003;36277;32.852;-116.998;2023-06-04T09:44:49;1.00;1.00;1.00
45700;PMS5003;36277;32.852;-116.998;2023-06-04T09:47:15;2.00;2.00;1.00
45700;PMS5003;36277;32.852;-116.998;2023-06-04T09:49:42;2.00;2.00;1.00
45700;PMS5003;36277;32.852;-116.998;2023-06-04T09:52:09;2.00;2.00;1.00
45700;PMS5003;36277;32.852;-116.998;2023-06-04T09:54:36;1.00;1.00;1.00
45700;PMS5003;36277;32.852;-116.998;2023-06-04T09:57:04;2.00;2.00;2.00
45700;PMS5003;36277;32.852;-116.998;2023-06-04T09:59:40;1.00;1.00;1.00
45700;PMS5003;36277;32.852;-116.998;2023-06-04T10:02:11;2.40;2.40;2.00
45700;PMS5003;36277;32.852;-116.998;2023-06-04T10:04:40;1.80;1.80;1.80
45700;PMS5003;36277;32.852;-116.998;2023-06-04T10:07:10;2.80;2.80;2.00
45700;PMS5003;36277;32.852;-116.998;2023-06-04T10:09:38;2.00;2.00;1.80
45700;PMS5003;36277;32.852;-116.998;2023-06-04T10:12:13;2.80;2.80;2.80
45700;PMS5003;36277;32.852;-116.998;2023-06-04T10:14:48;2.00;2.00;2.00
45700;PMS5003;36277;32.852;-116.998;2023-06-04T10:17:22;2.00;2.00;1.80
45700;PMS5003;36277;32.852;-116.998;2023-06-04T10:19:50;2.00;2.00;1.60
45700;PMS5003;36277;32.852;-116.998;2023-06-04T10:22:22;2.80;2.80;2.60
45700;PMS5003;36277;32.852;-116.998;2023-06-04T10:24:49;3.00;3.00;2.60
45700;PMS5003;36277;32.852;-116.998;2023-06-04T10:27:16;2.00;2.00;2.00
45700;PMS5003;36277;32.852;-116.998;2023-06-04T10:29:45;2.00;2.00;2.00
45700;PMS5003;36277;32.852;-116.998;2023-06-04T10:32:12;2.00;2.00;2.00
45700;PMS5003;36277;32.852;-116.998;2023-06-04T10:34:38;2.00;2.00;1.40
45700;PMS5003;36277;32.852;-116.998;2023-06-04T10:37:05;3.00;3.00;3.00
45700;PMS5003;36277;32.852;-116.998;2023-06-04T10:39:32;2.00;2.00;1.60
45700;PMS5003;36277;32.852;-116.998;2023-06-04T10:44:25;2.00;2.00;2.00
45700;PMS5003;36277;32.852;-116.998;2023-06-04T10:46:52;2.00;2.00;2.00
45700;PMS5003;36277;32.852;-116.998;2023-06-04T10:49:25;1.40;1.40;1.20
45700;PMS5003;36277;32.852;-116.998;2023-06-04T10:51:56;1.20;1.20;1.00
45700;PMS5003;36277;32.852;-116.998;2023-06-04T10:54:28;3.00;3.00;2.00
45700;PMS5003;36277;32.852;-116.998;2023-06-04T10:56:55;1.60;1.60;1.00
45700;PMS5003;36277;32.852;-116.998;2023-06-04T10:59:21;2.00;2.00;2.00
45700;PMS5003;36277;32.852;-116.998;2023-06-04T11:01:49;2.00;2.00;2.00
45700;PMS5003;36277;32.852;-116.998;2023-06-04T11:06:59;2.00;2.00;2.00
45700;PMS5003;36277;32.852;-116.998;2023-06-04T11:09:36;2.00;2.00;2.00
45700;PMS5003;36277;32.852;-116.998;2023-06-04T11:12:06;2.00;2.00;2.00
45700;PMS5003;36277;32.852;-116.998;2023-06-04T11:14:33;3.40;3.40;2.80
45700;PMS5003;36277;32.852;-116.998;2023-06-04T11:17:09;4.20;3.60;3.00
45700;PMS5003;36277;32.852;-116.998;2023-06-04T11:19:39;3.00;3.00;3.00
45700;PMS5003;36277;32.852;-116.998;2023-06-04T11:22:05;3.00;3.00;3.00
45700;PMS5003;36277;32.852;-116.998;2023-06-04T11:24:35;2.40;2.40;2.00
45700;PMS5003;36277;32.852;-116.998;2023-06-04T11:27:02;2.00;2.00;1.40
45700;PMS5003;36277;32.852;-116.998;2023-06-04T11:29:28;3.00;3.00;3.00
45700;PMS5003;36277;32.852;-116.998;2023-06-04T11:31:55;2.60;2.60;2.60
45700;PMS5003;36277;32.852;-116.998;2023-06-04T11:34:28;2.80;2.80;2.00
45700;PMS5003;36277;32.852;-116.998;2023-06-04T11:36:55;2.00;2.00;2.00
45700;PMS5003;36277;32.852;-116.998;2023-06-04T11:39:22;2.60;2.60;2.40
45700;PMS5003;36277;32.852;-116.998;2023-06-04T11:41:48;2.20;2.20;2.00
45700;PMS5003;36277;32.852;-116.998;2023-06-04T11:44:19;2.40;2.40;1.80
45700;PMS5003;36277;32.852;-116.998;2023-06-04T11:46:46;3.00;3.00;3.00
45700;PMS5003;36277;32.852;-116.998;2023-06-04T11:49:18;3.00;3.00;2.20
45700;PMS5003;36277;32.852;-116.998;2023-06-04T11:51:48;1.60;1.60;1.20
45700;PMS5003;36277;32.852;-116.998;2023-06-04T11:54:16;2.20;2.20;2.00
45700;PMS5003;36277;32.852;-116.998;2023-06-04T11:56:43;1.80;1.80;1.00
45700;PMS5003;36277;32.852;-116.998;2023-06-04T11:59:14;2.80;2.80;2.00
45700;PMS5003;36277;32.852;-116.998;2023-06-04T12:01:42;1.00;1.00;0.40
45700;PMS5003;36277;32.852;-116.998;2023-06-04T12:09:20;1.40;1.40;1.20
45700;PMS5003;36277;32.852;-116.998;2023-06-04T12:11:47;1.00;1.00;1.00
45700;PMS5003;36277;32.852;-116.998;2023-06-04T12:14:17;2.00;2.00;1.20
45700;PMS5003;36277;32.852;-116.998;2023-06-04T12:17:05;2.60;2.60;1.80
45700;PMS5003;36277;32.852;-116.998;2023-06-04T12:19:45;1.60;1.60;1.00
45700;PMS5003;36277;32.852;-116.998;2023-06-04T12:22:13;3.00;3.00;2.00
45700;PMS5003;36277;32.852;-116.998;2023-06-04T12:24:47;3.00;3.00;2.00
45700;PMS5003;36277;32.852;-116.998;2023-06-04T12:27:14;2.00;2.00;2.00
45700;PMS5003;36277;32.852;-116.998;2023-06-04T12:29:40;2.40;2.40;2.00
45700;PMS5003;36277;32.852;-116.998;2023-06-04T12:32:07;1.00;1.00;1.00
45700;PMS5003;36277;32.852;-116.998;2023-06-04T12:34:36;2.00;2.00;2.00
45700;PMS5003;36277;32.852;-116.998;2023-06-04T12:37:03;1.00;1.00;1.00
45700;PMS5003;36277;32.852;-116.998;2023-06-04T12:39:34;2.20;2.20;2.00
45700;PMS5003;36277;32.852;-116.998;2023-06-04T12:42:08;2.20;2.20;2.00
45700;PMS5003;36277;32.852;-116.998;2023-06-04T12:44:35;2.00;2.00;2.00
45700;PMS5003;36277;32.852;-116.998;2023-06-04T12:47:02;3.20;3.20;2.00
45700;PMS5003;36277;32.852;-116.998;2023-06-04T12:49:29;2.40;2.40;2.20
45700;PMS5003;36277;32.852;-116.998;2023-06-04T12:51:55;2.40;2.40;2.00
45700;PMS5003;36277;32.852;-116.998;2023-06-04T12:54:22;2.20;2.20;2.00
45700;PMS5003;36277;32.852;-116.998;2023-06-04T12:56:48;2.00;2.00;1.20
45700;PMS5003;36277;32.852;-116.998;2023-06-04T12:59:15;1.00;1.00;0.00
45700;PMS5003;36277;32.852;-116.998;2023-06-04T13:01:42;3.00;3.00;2.00
45700;PMS5003;36277;32.852;-116.998;2023-06-04T13:04:08;1.40;1.40;1.00
45700;PMS5003;36277;32.852;-116.998;2023-06-04T13:06:35;2.60;2.60;2.00
45700;PMS5003;36277;32.852;-116.998;2023-06-04T13:09:02;2.00;2.00;2.00
45700;PMS5003;36277;32.852;-116.998;2023-06-04T13:11:36;2.20;2.20;2.00
45700;PMS5003;36277;32.852;-116.998;2023-06-04T13:14:06;2.60;2.60;1.80
45700;PMS5003;36277;32.852;-116.998;2023-06-04T13:16:33;2.60;2.60;2.60
45700;PMS5003;36277;32.852;-116.998;2023-06-04T13:19:01;2.80;2.80;2.00
45700;PMS5003;36277;32.852;-116.998;2023-06-04T13:21:28;2.00;2.00;2.00
45700;PMS5003;36277;32.852;-116.998;2023-06-04T13:23:54;2.00;2.00;2.00
45700;PMS5003;36277;32.852;-116.998;2023-06-04T13:26:21;2.80;2.80;2.00
45700;PMS5003;36277;32.852;-116.998;2023-06-04T13:28:48;3.00;3.00;2.00
45700;PMS5003;36277;32.852;-116.998;2023-06-04T13:31:14;2.00;2.00;2.00
45700;PMS5003;36277;32.852;-116.998;2023-06-04T13:33:40;2.00;2.00;2.00
45700;PMS5003;36277;32.852;-116.998;2023-06-04T13:36:08;3.00;3.00;2.00
45700;PMS5003;36277;32.852;-116.998;2023-06-04T13:38:34;3.00;3.00;3.00
45700;PMS5003;36277;32.852;-116.998;2023-06-04T13:41:00;2.00;2.00;2.00
45700;PMS5003;36277;32.852;-116.998;2023-06-04T13:43:27;0.80;0.80;0.80
45700;PMS5003;36277;32.852;-116.998;2023-06-04T13:45:53;2.00;2.00;2.00
45700;PMS5003;36277;32.852;-116.998;2023-06-04T13:48:20;3.20;3.20;3.00
45700;PMS5003;36277;32.852;-116.998;2023-06-04T13:50:46;2.40;2.40;2.00
45700;PMS5003;36277;32.852;-116.998;2023-06-04T13:53:12;3.20;3.20;2.80
45700;PMS5003;36277;32.852;-116.998;2023-06-04T13:55:38;2.00;2.00;1.00
45700;PMS5003;36277;32.852;-116.998;2023-06-04T13:58:05;2.00;2.00;2.00
45700;PMS5003;36277;32.852;-116.998;2023-06-04T14:00:32;1.40;1.40;1.00
45700;PMS5003;36277;32.852;-116.998;2023-06-04T14:02:59;2.00;2.00;2.00
45700;PMS5003;36277;32.852;-116.998;2023-06-04T14:05:25;1.60;1.60;1.00
45700;PMS5003;36277;32.852;-116.998;2023-06-04T14:07:55;2.20;2.20;2.00